sensor_id;sensor_type;location;lat;lon;timestamp;temperature;humidity
11824;DHT22;5969;50.780;7.726;2023-02-28T00:01:05;-1.60;99.90
11824;DHT22;5969;50.780;7.726;2023-02-28T00:03:34;-1.60;99.90
11824;DHT22;5969;50.780;7.726;2023-02-28T00:06:02;-1.50;99.90
11824;DHT22;5969;50.780;7.726;2023-02-28T00:08:28;-1.60;99.90
11824;DHT22;5969;50.780;7.726;2023-02-28T00:10:55;-1.60;99.90
11824;DHT22;5969;50.780;7.726;2023-02-28T00:13:22;-1.60;99.90
11824;DHT22;5969;50.780;7.726;2023-02-28T00:15:59;-1.60;99.90
11824;DHT22;5969;50.780;7.726;2023-02-28T00:18:26;-1.50;99.90
11824;DHT22;5969;50.780;7.726;2023-02-28T00:20:54;-1.50;99.90
11824;DHT22;5969;50.780;7.726;2023-02-28T00:23:21;-1.40;99.90
11824;DHT22;5969;50.780;7.726;2023-02-28T00:25:47;-1.40;99.90
11824;DHT22;5969;50.780;7.726;2023-02-28T00:28:14;-1.40;99.90
11824;DHT22;5969;50.780;7.726;2023-02-28T00:30:41;-1.40;99.90
11824;DHT22;5969;50.780;7.726;2023-02-28T00:33:08;-1.40;99.90
11824;DHT22;5969;50.780;7.726;2023-02-28T00:35:35;-1.40;99.90
11824;DHT22;5969;50.780;7.726;2023-02-28T00:38:03;-1.40;99.90
11824;DHT22;5969;50.780;7.726;2023-02-28T00:40:30;-1.50;99.90
11824;DHT22;5969;50.780;7.726;2023-02-28T00:42:57;-1.40;99.90
11824;DHT22;5969;50.780;7.726;2023-02-28T00:45:24;-1.40;99.90
11824;DHT22;5969;50.780;7.726;2023-02-28T00:47:50;-1.50;99.90
11824;DHT22;5969;50.780;7.726;2023-02-28T00:50:17;-1.50;99.90
11824;DHT22;5969;50.780;7.726;2023-02-28T00:52:44;-1.50;99.90
11824;DHT22;5969;50.780;7.726;2023-02-28T00:55:12;-1.50;99.90
11824;DHT22;5969;50.780;7.726;2023-02-28T00:57:39;-1.50;99.90
11824;DHT22;5969;50.780;7.726;2023-02-28T01:00:07;-1.60;99.90
11824;DHT22;5969;50.780;7.726;2023-02-28T01:02:34;-1.60;99.90
11824;DHT22;5969;50.780;7.726;2023-02-28T01:05:01;-1.60;99.90
11824;DHT22;5969;50.780;7.726;2023-02-28T01:07:28;-1.60;99.90
11824;DHT22;5969;50.780;7.726;2023-02-28T01:09:55;-1.60;99.90
11824;DHT22;5969;50.780;7.726;2023-02-28T01:12:23;-1.60;99.90
11824;DHT22;5969;50.780;7.726;2023-02-28T01:14:49;-1.60;99.90
11824;DHT22;5969;50.780;7.726;2023-02-28T01:17:16;-1.70;99.90
11824;DHT22;5969;50.780;7.726;2023-02-28T01:19:43;-1.80;99.90
11824;DHT22;5969;50.780;7.726;2023-02-28T01:22:10;-1.80;99.90
11824;DHT22;5969;50.780;7.726;2023-02-28T01:24:37;-1.70;99.90
11824;DHT22;5969;50.780;7.726;2023-02-28T01:27:04;-1.70;99.90
11824;DHT22;5969;50.780;7.726;2023-02-28T01:29:32;-1.70;99.90
11824;DHT22;5969;50.780;7.726;2023-02-28T01:31:58;-1.80;99.90
11824;DHT22;5969;50.780;7.726;2023-02-28T01:34:25;-1.80;99.90
11824;DHT22;5969;50.780;7.726;2023-02-28T01:36:52;-1.90;99.90
11824;DHT22;5969;50.780;7.726;2023-02-28T01:39:19;-1.90;99.90
11824;DHT22;5969;50.780;7.726;2023-02-28T01:41:46;-1.90;99.90
11824;DHT22;5969;50.780;7.726;2023-02-28T01:47:17;-1.90;99.90
11824;DHT22;5969;50.780;7.726;2023-02-28T01:49:44;-1.90;99.90
11824;DHT22;5969;50.780;7.726;2023-02-28T01:52:12;-1.90;99.90
11824;DHT22;5969;50.780;7.726;2023-02-28T01:54:45;-1.90;99.90
11824;DHT22;5969;50.780;7.726;2023-02-28T01:57:16;-1.90;99.90
11824;DHT22;5969;50.780;7.726;2023-02-28T01:59:47;-1.90;99.90
11824;DHT22;5969;50.780;7.726;2023-02-28T02:02:19;-1.80;99.90
11824;DHT22;5969;50.780;7.726;2023-02-28T02:04:54;-1.80;99.90
11824;DHT22;5969;50.780;7.726;2023-02-28T02:07:23;-1.80;99.90
11824;DHT22;5969;50.780;7.726;2023-02-28T02:10:00;-1.80;99.90
11824;DHT22;5969;50.780;7.726;2023-02-28T02:12:34;-1.80;99.90
11824;DHT22;5969;50.780;7.726;2023-02-28T02:15:11;-1.70;99.90
11824;DHT22;5969;50.780;7.726;2023-02-28T02:17:44;-1.70;99.90
11824;DHT22;5969;50.780;7.726;2023-02-28T02:23:38;-1.50;99.90
11824;DHT22;5969;50.780;7.726;2023-02-28T02:29:41;-1.40;99.90
11824;DHT22;5969;50.780;7.726;2023-02-28T02:32:19;-1.50;99.90
11824;DHT22;5969;50.780;7.726;2023-02-28T02:35:02;-1.40;99.90
11824;DHT22;5969;50.780;7.726;2023-02-28T02:37:35;-1.40;99.90
11824;DHT22;5969;50.780;7.726;2023-02-28T02:40:10;-1.30;99.90
11824;DHT22;5969;50.780;7.726;2023-02-28T02:42:44;-1.30;99.90
11824;DHT22;5969;50.780;7.726;2023-02-28T02:45:17;-1.20;99.90
11824;DHT22;5969;50.780;7.726;2023-02-28T02:47:46;-1.10;99.90
11824;DHT22;5969;50.780;7.726;2023-02-28T02:50:18;-1.10;99.90
11824;DHT22;5969;50.780;7.726;2023-02-28T02:52:50;-1.10;99.90
11824;DHT22;5969;50.780;7.726;2023-02-28T02:55:19;-1.10;99.90
11824;DHT22;5969;50.780;7.726;2023-02-28T02:57:48;-1.10;99.90
11824;DHT22;5969;50.780;7.726;2023-02-28T03:00:19;-1.10;99.90
11824;DHT22;5969;50.780;7.726;2023-02-28T03:02:49;-1.20;99.90
11824;DHT22;5969;50.780;7.726;2023-02-28T03:05:23;-1.20;99.90
11824;DHT22;5969;50.780;7.726;2023-02-28T03:07:51;-1.40;99.90
11824;DHT22;5969;50.780;7.726;2023-02-28T03:10:32;-1.50;99.90
11824;DHT22;5969;50.780;7.726;2023-02-28T03:13:16;-1.50;99.90
11824;DHT22;5969;50.780;7.726;2023-02-28T03:15:55;-1.50;99.90
11824;DHT22;5969;50.780;7.726;2023-02-28T03:18:30;-1.60;99.90
11824;DHT22;5969;50.780;7.726;2023-02-28T03:21:04;-1.70;99.90
11824;DHT22;5969;50.780;7.726;2023-02-28T03:23:40;-1.80;99.90
11824;DHT22;5969;50.780;7.726;2023-02-28T03:26:13;-1.80;99.90
11824;DHT22;5969;50.780;7.726;2023-02-28T03:28:48;-1.90;99.90
11824;DHT22;5969;50.780;7.726;2023-02-28T03:31:20;-1.90;99.90
11824;DHT22;5969;50.780;7.726;2023-02-28T03:33:51;-1.90;99.90
11824;DHT22;5969;50.780;7.726;2023-02-28T03:36:25;-2.10;99.90
11824;DHT22;5969;50.780;7.726;2023-02-28T03:38:57;-2.10;99.90
11824;DHT22;5969;50.780;7.726;2023-02-28T03:41:31;-2.20;99.90
11824;DHT22;5969;50.780;7.726;2023-02-28T03:44:03;-2.30;99.90
11824;DHT22;5969;50.780;7.726;2023-02-28T03:46:36;-2.30;99.90
11824;DHT22;5969;50.780;7.726;2023-02-28T03:49:08;-2.30;99.90
11824;DHT22;5969;50.780;7.726;2023-02-28T03:51:38;-2.30;99.90
11824;DHT22;5969;50.780;7.726;2023-02-28T03:54:11;-2.30;99.90
11824;DHT22;5969;50.780;7.726;2023-02-28T03:56:42;-2.40;99.90
11824;DHT22;5969;50.780;7.726;2023-02-28T03:59:13;-2.40;99.90
11824;DHT22;5969;50.780;7.726;2023-02-28T04:01:43;-2.40;99.90
11824;DHT22;5969;50.780;7.726;2023-02-28T04:04:11;-2.40;99.90
11824;DHT22;5969;50.780;7.726;2023-02-28T04:06:40;-2.60;99.90
11824;DHT22;5969;50.780;7.726;2023-02-28T04:09:10;-2.60;99.90
11824;DHT22;5969;50.780;7.726;2023-02-28T04:11:38;-2.60;99.90
11824;DHT22;5969;50.780;7.726;2023-02-28T04:14:07;-2.70;99.90
11824;DHT22;5969;50.780;7.726;2023-02-28T04:16:35;-2.80;99.90
11824;DHT22;5969;50.780;7.726;2023-02-28T04:19:03;-2.90;99.90
11824;DHT22;5969;50.780;7.726;2023-02-28T04:21:31;-2.90;99.90
11824;DHT22;5969;50.780;7.726;2023-02-28T04:23:59;-2.90;99.90
11824;DHT22;5969;50.780;7.726;2023-02-28T04:26:28;-3.00;99.90
11824;DHT22;5969;50.780;7.726;2023-02-28T04:28:56;-3.10;99.90
11824;DHT22;5969;50.780;7.726;2023-02-28T04:31:23;-3.30;99.90
11824;DHT22;5969;50.780;7.726;2023-02-28T04:33:49;-3.30;99.90
11824;DHT22;5969;50.780;7.726;2023-02-28T04:36:17;-3.40;99.90
11824;DHT22;5969;50.780;7.726;2023-02-28T04:38:45;-3.40;99.90
11824;DHT22;5969;50.780;7.726;2023-02-28T04:41:13;-3.40;99.90
11824;DHT22;5969;50.780;7.726;2023-02-28T04:43:40;-3.30;99.90
11824;DHT22;5969;50.780;7.726;2023-02-28T04:46:07;-3.20;99.90
11824;DHT22;5969;50.780;7.726;2023-02-28T04:48:36;-3.20;99.90
11824;DHT22;5969;50.780;7.726;2023-02-28T04:51:04;-3.20;99.90
11824;DHT22;5969;50.780;7.726;2023-02-28T04:53:32;-3.20;99.90
11824;DHT22;5969;50.780;7.726;2023-02-28T04:55:59;-3.10;99.90
11824;DHT22;5969;50.780;7.726;2023-02-28T04:58:27;-3.10;99.90
11824;DHT22;5969;50.780;7.726;2023-02-28T05:01:02;-3.10;99.90
11824;DHT22;5969;50.780;7.726;2023-02-28T05:03:29;-2.90;99.90
11824;DHT22;5969;50.780;7.726;2023-02-28T05:05:55;-2.90;99.90
11824;DHT22;5969;50.780;7.726;2023-02-28T05:08:22;-2.90;99.90
11824;DHT22;5969;50.780;7.726;2023-02-28T05:10:49;-3.00;99.90
11824;DHT22;5969;50.780;7.726;2023-02-28T05:13:16;-2.90;99.90
11824;DHT22;5969;50.780;7.726;2023-02-28T05:15:44;-3.00;99.90
11824;DHT22;5969;50.780;7.726;2023-02-28T05:18:10;-2.90;99.90
11824;DHT22;5969;50.780;7.726;2023-02-28T05:20:37;-2.90;99.90
11824;DHT22;5969;50.780;7.726;2023-02-28T05:23:05;-2.90;99.90
11824;DHT22;5969;50.780;7.726;2023-02-28T05:25:32;-2.90;99.90
11824;DHT22;5969;50.780;7.726;2023-02-28T05:27:58;-2.90;99.90
11824;DHT22;5969;50.780;7.726;2023-02-28T05:30:25;-2.90;99.90
11824;DHT22;5969;50.780;7.726;2023-02-28T05:32:53;-2.80;99.90
11824;DHT22;5969;50.780;7.726;2023-02-28T05:35:20;-2.90;99.90
11824;DHT22;5969;50.780;7.726;2023-02-28T05:37:47;-2.90;99.90
11824;DHT22;5969;50.780;7.726;2023-02-28T05:40:14;-2.90;99.90
11824;DHT22;5969;50.780;7.726;2023-02-28T05:42:41;-3.00;99.90
11824;DHT22;5969;50.780;7.726;2023-02-28T05:45:08;-3.00;99.90
11824;DHT22;5969;50.780;7.726;2023-02-28T05:47:36;-3.10;99.90
11824;DHT22;5969;50.780;7.726;2023-02-28T05:50:05;-3.10;99.90
11824;DHT22;5969;50.780;7.726;2023-02-28T05:52:32;-3.20;99.90
11824;DHT22;5969;50.780;7.726;2023-02-28T05:54:59;-3.10;99.90
11824;DHT22;5969;50.780;7.726;2023-02-28T05:57:25;-3.10;99.90
11824;DHT22;5969;50.780;7.726;2023-02-28T05:59:52;-3.20;99.90
11824;DHT22;5969;50.780;7.726;2023-02-28T06:02:19;-3.20;99.90
11824;DHT22;5969;50.780;7.726;2023-02-28T06:04:46;-3.20;99.90
11824;DHT22;5969;50.780;7.726;2023-02-28T06:07:14;-3.20;99.90
11824;DHT22;5969;50.780;7.726;2023-02-28T06:09:43;-3.30;99.90
11824;DHT22;5969;50.780;7.726;2023-02-28T06:12:10;-3.30;99.90
11824;DHT22;5969;50.780;7.726;2023-02-28T06:14:36;-3.30;99.90
11824;DHT22;5969;50.780;7.726;2023-02-28T06:17:04;-3.30;99.90
11824;DHT22;5969;50.780;7.726;2023-02-28T06:19:30;-3.40;99.90
11824;DHT22;5969;50.780;7.726;2023-02-28T06:21:57;-3.30;99.90
11824;DHT22;5969;50.780;7.726;2023-02-28T06:24:26;-3.40;99.90
11824;DHT22;5969;50.780;7.726;2023-02-28T06:26:54;-3.30;99.90
11824;DHT22;5969;50.780;7.726;2023-02-28T06:29:21;-3.20;99.90
11824;DHT22;5969;50.780;7.726;2023-02-28T06:31:48;-3.20;99.90
11824;DHT22;5969;50.780;7.726;2023-02-28T06:34:15;-3.10;99.90
11824;DHT22;5969;50.780;7.726;2023-02-28T06:36:42;-3.00;99.90
11824;DHT22;5969;50.780;7.726;2023-02-28T06:39:09;-3.00;99.90
11824;DHT22;5969;50.780;7.726;2023-02-28T06:41:37;-3.00;99.90
11824;DHT22;5969;50.780;7.726;2023-02-28T06:44:05;-3.00;99.90
11824;DHT22;5969;50.780;7.726;2023-02-28T06:46:32;-3.10;99.90
11824;DHT22;5969;50.780;7.726;2023-02-28T06:48:59;-3.10;99.90
11824;DHT22;5969;50.780;7.726;2023-02-28T06:51:26;-3.20;99.90
11824;DHT22;5969;50.780;7.726;2023-02-28T06:53:52;-3.20;99.90
11824;DHT22;5969;50.780;7.726;2023-02-28T06:56:19;-3.20;99.90
11824;DHT22;5969;50.780;7.726;2023-02-28T06:58:48;-3.20;99.90
11824;DHT22;5969;50.780;7.726;2023-02-28T07:01:15;-3.20;99.90
11824;DHT22;5969;50.780;7.726;2023-02-28T07:03:42;-3.30;99.90
11824;DHT22;5969;50.780;7.726;2023-02-28T07:06:09;-3.30;99.90
11824;DHT22;5969;50.780;7.726;2023-02-28T07:08:36;-3.30;99.90
11824;DHT22;5969;50.780;7.726;2023-02-28T07:11:03;-3.30;99.90
11824;DHT22;5969;50.780;7.726;2023-02-28T07:13:30;-3.10;99.90
11824;DHT22;5969;50.780;7.726;2023-02-28T07:16:00;-3.10;99.90
11824;DHT22;5969;50.780;7.726;2023-02-28T07:18:27;-3.00;99.90
11824;DHT22;5969;50.780;7.726;2023-02-28T07:20:54;-2.80;99.90
11824;DHT22;5969;50.780;7.726;2023-02-28T07:23:21;-2.60;99.90
11824;DHT22;5969;50.780;7.726;2023-02-28T07:25:49;-2.30;99.90
11824;DHT22;5969;50.780;7.726;2023-02-28T07:28:16;-2.10;99.90
11824;DHT22;5969;50.780;7.726;2023-02-28T07:30:43;-1.80;99.90
11824;DHT22;5969;50.780;7.726;2023-02-28T07:33:11;-1.70;99.90
11824;DHT22;5969;50.780;7.726;2023-02-28T07:35:38;-1.60;99.90
11824;DHT22;5969;50.780;7.726;2023-02-28T07:38:05;-1.30;99.90
11824;DHT22;5969;50.780;7.726;2023-02-28T07:40:33;-1.30;99.90
11824;DHT22;5969;50.780;7.726;2023-02-28T07:43:00;-1.30;99.90
11824;DHT22;5969;50.780;7.726;2023-02-28T07:45:28;-1.40;99.90
11824;DHT22;5969;50.780;7.726;2023-02-28T07:47:57;-1.40;99.90
11824;DHT22;5969;50.780;7.726;2023-02-28T07:50:25;-1.20;99.90
11824;DHT22;5969;50.780;7.726;2023-02-28T07:52:54;-1.00;99.90
11824;DHT22;5969;50.780;7.726;2023-02-28T07:55:21;-0.80;99.90
11824;DHT22;5969;50.780;7.726;2023-02-28T07:57:48;-0.60;99.90
11824;DHT22;5969;50.780;7.726;2023-02-28T08:00:15;-0.60;99.90
11824;DHT22;5969;50.780;7.726;2023-02-28T08:02:42;-0.50;99.90
11824;DHT22;5969;50.780;7.726;2023-02-28T08:05:09;-0.70;99.90
11824;DHT22;5969;50.780;7.726;2023-02-28T08:07:37;-0.70;99.90
11824;DHT22;5969;50.780;7.726;2023-02-28T08:10:05;-0.60;99.90
11824;DHT22;5969;50.780;7.726;2023-02-28T08:12:32;-0.40;99.90
11824;DHT22;5969;50.780;7.726;2023-02-28T08:14:59;-0.30;99.90
11824;DHT22;5969;50.780;7.726;2023-02-28T08:17:26;-0.30;99.90
11824;DHT22;5969;50.780;7.726;2023-02-28T08:19:53;-0.30;99.90
11824;DHT22;5969;50.780;7.726;2023-02-28T08:22:19;-0.30;99.90
11824;DHT22;5969;50.780;7.726;2023-02-28T08:24:47;-0.20;99.90
11824;DHT22;5969;50.780;7.726;2023-02-28T08:27:14;-0.10;99.90
11824;DHT22;5969;50.780;7.726;2023-02-28T08:29:41;-0.10;99.90
11824;DHT22;5969;50.780;7.726;2023-02-28T08:32:08;0.00;99.90
11824;DHT22;5969;50.780;7.726;2023-02-28T08:34:35;0.10;99.90
11824;DHT22;5969;50.780;7.726;2023-02-28T08:37:01;0.20;99.90
11824;DHT22;5969;50.780;7.726;2023-02-28T08:39:28;0.20;99.90
11824;DHT22;5969;50.780;7.726;2023-02-28T08:41:57;0.30;99.90
11824;DHT22;5969;50.780;7.726;2023-02-28T08:44:24;0.30;99.90
11824;DHT22;5969;50.780;7.726;2023-02-28T08:46:50;0.40;99.90
11824;DHT22;5969;50.780;7.726;2023-02-28T08:49:17;0.50;99.90
11824;DHT22;5969;50.780;7.726;2023-02-28T08:51:44;0.50;99.90
11824;DHT22;5969;50.780;7.726;2023-02-28T08:54:11;0.60;99.90
11824;DHT22;5969;50.780;7.726;2023-02-28T08:56:38;0.70;99.90
11824;DHT22;5969;50.780;7.726;2023-02-28T08:59:08;0.80;99.90
11824;DHT22;5969;50.780;7.726;2023-02-28T09:01:35;0.90;99.90
11824;DHT22;5969;50.780;7.726;2023-02-28T09:04:02;1.00;99.90
11824;DHT22;5969;50.780;7.726;2023-02-28T09:06:29;1.10;99.90
11824;DHT22;5969;50.780;7.726;2023-02-28T09:08:56;1.20;99.90
11824;DHT22;5969;50.780;7.726;2023-02-28T09:11:25;1.20;99.90
11824;DHT22;5969;50.780;7.726;2023-02-28T09:13:52;1.40;99.90
11824;DHT22;5969;50.780;7.726;2023-02-28T09:16:20;1.50;99.90
11824;DHT22;5969;50.780;7.726;2023-02-28T09:18:47;1.60;99.90
11824;DHT22;5969;50.780;7.726;2023-02-28T09:21:16;1.70;99.90
11824;DHT22;5969;50.780;7.726;2023-02-28T09:23:44;1.80;99.90
11824;DHT22;5969;50.780;7.726;2023-02-28T09:26:13;1.90;99.90
11824;DHT22;5969;50.780;7.726;2023-02-28T09:28:40;2.00;99.90
11824;DHT22;5969;50.780;7.726;2023-02-28T09:31:12;2.10;99.90
11824;DHT22;5969;50.780;7.726;2023-02-28T09:33:41;2.20;99.90
11824;DHT22;5969;50.780;7.726;2023-02-28T09:36:08;2.30;99.90
11824;DHT22;5969;50.780;7.726;2023-02-28T09:38:35;2.30;99.60
11824;DHT22;5969;50.780;7.726;2023-02-28T09:41:04;2.40;99.00
11824;DHT22;5969;50.780;7.726;2023-02-28T09:43:38;2.50;98.70
11824;DHT22;5969;50.780;7.726;2023-02-28T09:46:11;2.60;98.20
11824;DHT22;5969;50.780;7.726;2023-02-28T09:48:45;2.60;97.80
11824;DHT22;5969;50.780;7.726;2023-02-28T09:51:26;2.70;97.80
11824;DHT22;5969;50.780;7.726;2023-02-28T09:53:54;2.80;97.10
11824;DHT22;5969;50.780;7.726;2023-02-28T09:56:23;2.90;96.40
11824;DHT22;5969;50.780;7.726;2023-02-28T09:58:56;3.00;96.40
11824;DHT22;5969;50.780;7.726;2023-02-28T10:01:29;3.10;96.30
11824;DHT22;5969;50.780;7.726;2023-02-28T10:04:01;3.20;96.40
11824;DHT22;5969;50.780;7.726;2023-02-28T10:06:35;3.30;96.30
11824;DHT22;5969;50.780;7.726;2023-02-28T10:09:07;3.50;95.90
11824;DHT22;5969;50.780;7.726;2023-02-28T10:11:36;3.70;95.20
11824;DHT22;5969;50.780;7.726;2023-02-28T10:14:10;3.80;95.00
11824;DHT22;5969;50.780;7.726;2023-02-28T10:16:41;3.90;94.40
11824;DHT22;5969;50.780;7.726;2023-02-28T10:19:15;3.80;94.10
11824;DHT22;5969;50.780;7.726;2023-02-28T10:21:47;3.90;94.40
11824;DHT22;5969;50.780;7.726;2023-02-28T10:24:20;4.10;94.20
11824;DHT22;5969;50.780;7.726;2023-02-28T10:26:48;4.10;94.00
11824;DHT22;5969;50.780;7.726;2023-02-28T10:29:15;4.40;94.00
11824;DHT22;5969;50.780;7.726;2023-02-28T10:31:42;4.60;93.60
11824;DHT22;5969;50.780;7.726;2023-02-28T10:34:13;4.80;93.40
11824;DHT22;5969;50.780;7.726;2023-02-28T10:36:40;4.90;92.70
11824;DHT22;5969;50.780;7.726;2023-02-28T10:39:34;4.80;92.90
11824;DHT22;5969;50.780;7.726;2023-02-28T10:42:01;4.80;92.30
11824;DHT22;5969;50.780;7.726;2023-02-28T10:44:28;4.80;92.60
11824;DHT22;5969;50.780;7.726;2023-02-28T10:46:56;4.90;92.10
11824;DHT22;5969;50.780;7.726;2023-02-28T10:49:26;4.80;91.80
11824;DHT22;5969;50.780;7.726;2023-02-28T10:51:56;4.80;91.70
11824;DHT22;5969;50.780;7.726;2023-02-28T10:54:26;4.80;91.40
11824;DHT22;5969;50.780;7.726;2023-02-28T10:57:15;4.90;92.00
11824;DHT22;5969;50.780;7.726;2023-02-28T10:59:43;5.10;91.60
11824;DHT22;5969;50.780;7.726;2023-02-28T11:02:31;5.30;91.50
11824;DHT22;5969;50.780;7.726;2023-02-28T11:05:00;5.50;91.10
11824;DHT22;5969;50.780;7.726;2023-02-28T11:07:27;5.60;91.10
11824;DHT22;5969;50.780;7.726;2023-02-28T11:09:56;5.80;91.20
11824;DHT22;5969;50.780;7.726;2023-02-28T11:12:26;5.70;90.30
11824;DHT22;5969;50.780;7.726;2023-02-28T11:14:55;5.80;90.00
11824;DHT22;5969;50.780;7.726;2023-02-28T11:17:25;5.90;90.20
11824;DHT22;5969;50.780;7.726;2023-02-28T11:19:55;6.10;90.70
11824;DHT22;5969;50.780;7.726;2023-02-28T11:22:27;6.20;89.60
11824;DHT22;5969;50.780;7.726;2023-02-28T11:24:56;6.00;90.10
11824;DHT22;5969;50.780;7.726;2023-02-28T11:30:26;6.60;89.40
11824;DHT22;5969;50.780;7.726;2023-02-28T11:32:53;7.70;91.00
11824;DHT22;5969;50.780;7.726;2023-02-28T11:35:25;9.40;90.00
11824;DHT22;5969;50.780;7.726;2023-02-28T11:37:53;12.70;78.00
11824;DHT22;5969;50.780;7.726;2023-02-28T11:40:28;15.00;73.90
11824;DHT22;5969;50.780;7.726;2023-02-28T11:43:05;16.60;64.50
11824;DHT22;5969;50.780;7.726;2023-02-28T11:45:57;17.80;59.50
11824;DHT22;5969;50.780;7.726;2023-02-28T11:48:33;19.60;55.30
11824;DHT22;5969;50.780;7.726;2023-02-28T11:51:14;21.70;53.90
11824;DHT22;5969;50.780;7.726;2023-02-28T11:53:54;22.90;50.50
11824;DHT22;5969;50.780;7.726;2023-02-28T11:56:31;23.80;50.60
11824;DHT22;5969;50.780;7.726;2023-02-28T11:59:14;24.50;47.80
11824;DHT22;5969;50.780;7.726;2023-02-28T12:02:05;25.30;45.30
11824;DHT22;5969;50.780;7.726;2023-02-28T12:04:39;26.20;46.00
11824;DHT22;5969;50.780;7.726;2023-02-28T12:07:11;27.50;43.40
11824;DHT22;5969;50.780;7.726;2023-02-28T12:09:50;26.70;40.80
11824;DHT22;5969;50.780;7.726;2023-02-28T12:12:25;25.60;40.80
11824;DHT22;5969;50.780;7.726;2023-02-28T12:15:13;24.40;44.10
11824;DHT22;5969;50.780;7.726;2023-02-28T12:18:12;25.60;44.70
11824;DHT22;5969;50.780;7.726;2023-02-28T12:20:46;27.80;42.00
11824;DHT22;5969;50.780;7.726;2023-02-28T12:23:25;28.50;40.70
11824;DHT22;5969;50.780;7.726;2023-02-28T12:26:05;27.00;38.20
11824;DHT22;5969;50.780;7.726;2023-02-28T12:28:39;25.40;42.00
11824;DHT22;5969;50.780;7.726;2023-02-28T12:31:11;24.90;44.20
11824;DHT22;5969;50.780;7.726;2023-02-28T12:33:44;26.10;40.60
11824;DHT22;5969;50.780;7.726;2023-02-28T12:36:14;27.60;41.20
11824;DHT22;5969;50.780;7.726;2023-02-28T12:38:46;27.90;40.40
11824;DHT22;5969;50.780;7.726;2023-02-28T12:41:18;28.50;40.00
11824;DHT22;5969;50.780;7.726;2023-02-28T12:43:50;28.40;39.10
11824;DHT22;5969;50.780;7.726;2023-02-28T12:46:21;28.10;39.00
11824;DHT22;5969;50.780;7.726;2023-02-28T12:48:53;26.70;40.40
11824;DHT22;5969;50.780;7.726;2023-02-28T12:51:23;28.10;39.70
11824;DHT22;5969;50.780;7.726;2023-02-28T12:53:57;28.30;39.00
11824;DHT22;5969;50.780;7.726;2023-02-28T12:56:38;29.40;38.10
11824;DHT22;5969;50.780;7.726;2023-02-28T12:59:31;29.60;38.50
11824;DHT22;5969;50.780;7.726;2023-02-28T13:11:25;30.50;37.30
11824;DHT22;5969;50.780;7.726;2023-02-28T13:14:05;30.20;37.80
11824;DHT22;5969;50.780;7.726;2023-02-28T13:16:59;30.80;36.40
11824;DHT22;5969;50.780;7.726;2023-02-28T13:19:28;31.30;36.80
11824;DHT22;5969;50.780;7.726;2023-02-28T13:21:56;30.20;36.80
11824;DHT22;5969;50.780;7.726;2023-02-28T13:24:45;30.90;35.10
11824;DHT22;5969;50.780;7.726;2023-02-28T13:27:33;30.50;37.40
11824;DHT22;5969;50.780;7.726;2023-02-28T13:33:24;30.10;34.70
11824;DHT22;5969;50.780;7.726;2023-02-28T13:36:23;27.90;36.90
11824;DHT22;5969;50.780;7.726;2023-02-28T13:38:52;24.10;39.40
11824;DHT22;5969;50.780;7.726;2023-02-28T13:41:47;21.00;42.20
11824;DHT22;5969;50.780;7.726;2023-02-28T13:44:26;19.00;43.50
11824;DHT22;5969;50.780;7.726;2023-02-28T13:50:14;17.70;45.90
11824;DHT22;5969;50.780;7.726;2023-02-28T13:52:46;21.70;42.50
11824;DHT22;5969;50.780;7.726;2023-02-28T13:55:26;24.20;43.10
11824;DHT22;5969;50.780;7.726;2023-02-28T13:58:25;26.10;39.70
11824;DHT22;5969;50.780;7.726;2023-02-28T14:01:07;27.70;39.80
11824;DHT22;5969;50.780;7.726;2023-02-28T14:03:48;29.40;38.10
11824;DHT22;5969;50.780;7.726;2023-02-28T14:06:27;30.50;37.00
11824;DHT22;5969;50.780;7.726;2023-02-28T14:08:58;31.00;36.70
11824;DHT22;5969;50.780;7.726;2023-02-28T14:11:29;31.20;34.40
11824;DHT22;5969;50.780;7.726;2023-02-28T14:13:56;30.00;37.50
11824;DHT22;5969;50.780;7.726;2023-02-28T14:16:25;31.10;36.90
11824;DHT22;5969;50.780;7.726;2023-02-28T14:18:57;29.60;36.10
11824;DHT22;5969;50.780;7.726;2023-02-28T14:21:27;30.40;35.50
11824;DHT22;5969;50.780;7.726;2023-02-28T14:24:29;30.10;34.30
11824;DHT22;5969;50.780;7.726;2023-02-28T14:27:21;30.80;35.30
11824;DHT22;5969;50.780;7.726;2023-02-28T14:33:01;31.90;36.00
11824;DHT22;5969;50.780;7.726;2023-02-28T14:35:50;32.60;34.90
11824;DHT22;5969;50.780;7.726;2023-02-28T14:38:23;30.70;33.00
11824;DHT22;5969;50.780;7.726;2023-02-28T14:40:52;30.90;35.90
11824;DHT22;5969;50.780;7.726;2023-02-28T14:43:22;30.90;34.00
11824;DHT22;5969;50.780;7.726;2023-02-28T14:45:51;30.80;35.30
11824;DHT22;5969;50.780;7.726;2023-02-28T14:48:20;31.10;35.20
11824;DHT22;5969;50.780;7.726;2023-02-28T14:50:52;31.50;33.70
11824;DHT22;5969;50.780;7.726;2023-02-28T14:53:23;31.40;35.50
11824;DHT22;5969;50.780;7.726;2023-02-28T14:55:51;31.60;35.00
11824;DHT22;5969;50.780;7.726;2023-02-28T14:58:23;30.80;35.00
11824;DHT22;5969;50.780;7.726;2023-02-28T15:00:52;30.60;33.30
11824;DHT22;5969;50.780;7.726;2023-02-28T15:03:22;29.60;35.10
11824;DHT22;5969;50.780;7.726;2023-02-28T15:05:53;29.70;36.20
11824;DHT22;5969;50.780;7.726;2023-02-28T15:08:22;30.40;34.80
11824;DHT22;5969;50.780;7.726;2023-02-28T15:10:55;30.40;34.90
11824;DHT22;5969;50.780;7.726;2023-02-28T15:13:23;30.40;35.10
11824;DHT22;5969;50.780;7.726;2023-02-28T15:15:56;31.10;34.30
11824;DHT22;5969;50.780;7.726;2023-02-28T15:18:29;31.00;33.70
11824;DHT22;5969;50.780;7.726;2023-02-28T15:21:12;30.30;32.70
11824;DHT22;5969;50.780;7.726;2023-02-28T15:23:44;30.40;34.60
11824;DHT22;5969;50.780;7.726;2023-02-28T15:26:16;30.10;34.50
11824;DHT22;5969;50.780;7.726;2023-02-28T15:28:44;30.00;34.50
11824;DHT22;5969;50.780;7.726;2023-02-28T15:31:20;30.40;34.80
11824;DHT22;5969;50.780;7.726;2023-02-28T15:33:53;29.90;33.70
11824;DHT22;5969;50.780;7.726;2023-02-28T15:36:24;29.30;32.10
11824;DHT22;5969;50.780;7.726;2023-02-28T15:38:54;28.90;36.20
11824;DHT22;5969;50.780;7.726;2023-02-28T15:41:24;28.90;34.80
11824;DHT22;5969;50.780;7.726;2023-02-28T15:47:00;27.60;34.20
11824;DHT22;5969;50.780;7.726;2023-02-28T15:49:28;26.10;36.20
11824;DHT22;5969;50.780;7.726;2023-02-28T15:51:58;25.90;36.00
11824;DHT22;5969;50.780;7.726;2023-02-28T15:54:30;26.00;36.30
11824;DHT22;5969;50.780;7.726;2023-02-28T15:57:03;25.90;36.80
11824;DHT22;5969;50.780;7.726;2023-02-28T15:59:35;25.70;36.40
11824;DHT22;5969;50.780;7.726;2023-02-28T16:02:13;23.70;34.70
11824;DHT22;5969;50.780;7.726;2023-02-28T16:04:58;22.00;39.10
11824;DHT22;5969;50.780;7.726;2023-02-28T16:07:25;20.70;37.40
11824;DHT22;5969;50.780;7.726;2023-02-28T16:09:54;19.90;41.20
11824;DHT22;5969;50.780;7.726;2023-02-28T16:12:25;19.40;39.70
11824;DHT22;5969;50.780;7.726;2023-02-28T16:14:53;18.90;42.30
11824;DHT22;5969;50.780;7.726;2023-02-28T16:17:22;18.90;40.70
11824;DHT22;5969;50.780;7.726;2023-02-28T16:19:49;18.70;42.10
11824;DHT22;5969;50.780;7.726;2023-02-28T16:22:16;18.60;42.00
11824;DHT22;5969;50.780;7.726;2023-02-28T16:24:43;18.20;42.40
11824;DHT22;5969;50.780;7.726;2023-02-28T16:27:17;18.50;42.50
11824;DHT22;5969;50.780;7.726;2023-02-28T16:29:45;18.80;41.60
11824;DHT22;5969;50.780;7.726;2023-02-28T16:32:15;19.40;40.90
11824;DHT22;5969;50.780;7.726;2023-02-28T16:34:43;19.30;41.30
11824;DHT22;5969;50.780;7.726;2023-02-28T16:37:11;19.20;40.50
11824;DHT22;5969;50.780;7.726;2023-02-28T16:39:39;18.80;42.20
11824;DHT22;5969;50.780;7.726;2023-02-28T16:42:06;18.10;39.90
11824;DHT22;5969;50.780;7.726;2023-02-28T16:44:35;16.70;42.60
11824;DHT22;5969;50.780;7.726;2023-02-28T16:47:03;15.20;43.40